メインページ
METAR-TAF:

METAR-TAF

空港 :

館山, 日本

館山航空基地

緯度: 34-59N, 経度: 139-50E, 海抜: 3m

現時点の気象観測

当レポートは25時間9分前の22:41(UTC)に作成
の風 15kt、最大25ktの突風を伴う、北/北西から北東の間で変化する
気温 3°C
湿度 32%
気圧 1018 hPa
視程10km以上
高度3000ftの雲はほとんどない
高度23000ftの千切れ雲あり

METAR: RJTE 172241Z 01015G25KT 340V040 9999 FEW030 BKN230 03/M12 Q1018 RMK 1CU030 A3007

時間: 08:50 (23:50 UTC)


TAF: 見つかりません

4,000以上の空港の気象観測と天気予報(METAR報とTAF報)

利用可能な観測所は地図上に黄色い丸と赤い丸で示す。

丸の上にカーソルを重ねると観測所名を参照できる。

次にクリックすると気象観測と天気予報を参照できる。

マップの切り替え:黒色「×」印の緑ボタンをクリックして拡大、「-」印の緑ボタンをクリックして縮小、緑色の三角印をクリックして隣りの地図に切り替え


METAR-TAF: